Time;durP1;ratioP1;P1;durP2;ratioP2;P2;SDS_P1;SDS_P2;PMS_P1;PMS_P2;Temp;Humidity;BMP_temperature;BMP_pressure;BME280_temperature;BME280_humidity;BME280_pressure;Samples;Min_cycle;Max_cycle;Signal;HPM_P1;HPM_P2
2021/07/07 00:00:15;;;;;;;4.28;3.27;;;;;;;20.19;68.49;96381.52;1638552;86;20970;-79
2021/07/07 00:02:43;;;;;;;3.20;2.90;;;;;;;20.18;68.19;96377.28;1630064;87;21459;-79
2021/07/07 00:05:10;;;;;;;3.87;3.50;;;;;;;20.17;68.17;96376.97;1617233;87;21051;-79
2021/07/07 00:07:36;;;;;;;3.20;2.90;;;;;;;20.16;67.87;96378.53;1631164;87;20975;-79
2021/07/07 00:10:04;;;;;;;3.05;2.75;;;;;;;20.13;67.62;96375.86;1631432;87;21832;-79
2021/07/07 00:12:29;;;;;;;3.02;2.72;;;;;;;20.10;67.68;96375.03;1630195;87;20964;-79
2021/07/07 00:14:55;;;;;;;3.83;2.62;;;;;;;20.08;67.62;96371.84;1628630;86;21324;-79
2021/07/07 00:17:21;;;;;;;3.22;2.25;;;;;;;20.08;67.34;96373.16;1637357;87;20954;-79
2021/07/07 00:19:47;;;;;;;2.62;2.33;;;;;;;20.09;66.99;96372.12;1640935;86;21034;-79
2021/07/07 00:22:14;;;;;;;2.77;2.55;;;;;;;20.11;66.87;96370.56;1640723;87;20971;-79
2021/07/07 00:24:40;;;;;;;3.08;2.75;;;;;;;20.11;66.74;96373.99;1626251;86;21265;-79
2021/07/07 00:27:07;;;;;;;5.03;2.77;;;;;;;20.11;66.77;96373.20;1640265;86;20979;-79
2021/07/07 00:29:32;;;;;;;4.47;3.47;;;;;;;20.09;66.68;96368.96;1648390;86;20903;-79
2021/07/07 00:31:58;;;;;;;4.03;3.12;;;;;;;20.10;66.56;96376.35;1654381;86;21324;-79
2021/07/07 00:34:24;;;;;;;3.10;2.80;;;;;;;20.09;66.85;96378.72;1640837;86;21043;-79
2021/07/07 00:36:49;;;;;;;3.52;3.12;;;;;;;20.07;66.81;96371.05;1610034;87;21047;-78
2021/07/07 00:39:16;;;;;;;3.52;2.80;;;;;;;20.09;66.49;96376.08;1626406;86;21282;-79
2021/07/07 00:41:41;;;;;;;3.55;2.85;;;;;;;20.11;66.41;96373.99;1649239;86;20951;-79
2021/07/07 00:44:07;;;;;;;2.98;2.62;;;;;;;20.10;66.59;96376.35;1645045;86;20930;-79
2021/07/07 00:46:33;;;;;;;3.20;2.58;;;;;;;20.07;66.24;96376.32;1641155;87;21280;-79
2021/07/07 00:48:59;;;;;;;2.75;2.42;;;;;;;20.05;66.13;96374.97;1638457;87;21294;-79
2021/07/07 00:51:25;;;;;;;2.70;2.50;;;;;;;20.02;66.04;96373.62;1636333;87;20975;-79
2021/07/07 00:53:51;;;;;;;3.83;2.40;;;;;;;20.00;65.87;96382.78;1624501;86;21240;-79
2021/07/07 00:56:18;;;;;;;2.58;2.33;;;;;;;19.96;65.70;96375.88;1612452;87;20971;-79
2021/07/07 00:58:46;;;;;;;2.20;1.87;;;;;;;19.97;65.60;96374.04;1638233;86;21770;-79
2021/07/07 01:01:12;;;;;;;2.20;1.80;;;;;;;19.99;65.32;96371.95;1644393;86;21280;-79
2021/07/07 01:03:38;;;;;;;2.00;1.80;;;;;;;20.02;65.21;96369.66;1619302;87;21089;-79
2021/07/07 01:06:04;;;;;;;3.50;2.40;;;;;;;20.06;65.10;96369.45;1635427;86;20919;-79
2021/07/07 01:08:30;;;;;;;2.37;1.75;;;;;;;20.12;64.54;96372.95;1639349;86;21016;-80
2021/07/07 01:10:56;;;;;;;2.52;2.17;;;;;;;20.18;64.08;96370.69;1637007;86;21296;-79
2021/07/07 01:13:21;;;;;;;2.08;1.87;;;;;;;20.27;64.14;96367.09;1641033;87;21046;-79
2021/07/07 01:15:47;;;;;;;2.67;2.02;;;;;;;20.31;63.91;96369.52;1648703;85;21173;-79
2021/07/07 01:18:13;;;;;;;2.60;2.40;;;;;;;20.38;63.12;96367.00;1659636;85;21074;-79
2021/07/07 01:20:40;;;;;;;2.42;2.10;;;;;;;20.48;63.85;96368.19;1644956;85;21345;-79
2021/07/07 01:23:06;;;;;;;2.92;2.40;;;;;;;20.51;63.64;96369.84;1636864;87;21053;-79
2021/07/07 01:25:32;;;;;;;2.22;1.82;;;;;;;20.50;63.83;96368.73;1640966;85;21365;-79
2021/07/07 01:28:01;;;;;;;3.50;2.27;;;;;;;20.50;63.58;96366.92;1648607;85;20907;-79
2021/07/07 01:30:25;;;;;;;2.60;2.10;;;;;;;20.50;63.16;96368.24;1636937;85;21007;-79
2021/07/07 01:32:51;;;;;;;2.80;2.08;;;;;;;20.50;63.43;96359.01;1647674;86;20991;-79
2021/07/07 01:35:17;;;;;;;2.87;2.50;;;;;;;20.50;63.16;96364.78;1621864;87;21067;-79
2021/07/07 01:37:43;;;;;;;2.45;2.15;;;;;;;20.52;62.79;96368.00;1648209;86;21300;-79
2021/07/07 01:40:12;;;;;;;3.25;2.35;;;;;;;20.53;63.33;96368.27;1653301;85;21012;-79
2021/07/07 01:42:38;;;;;;;3.40;2.35;;;;;;;20.50;63.45;96362.14;1640668;86;20974;-79
2021/07/07 01:45:08;;;;;;;2.80;2.40;;;;;;;20.46;63.58;96364.47;1654043;85;20974;-79
2021/07/07 01:47:33;;;;;;;3.67;2.52;;;;;;;20.46;63.26;96363.16;1647650;86;20970;-79
2021/07/07 01:50:00;;;;;;;2.83;2.62;;;;;;;20.49;63.20;96363.19;1632110;87;21252;-78
2021/07/07 01:52:26;;;;;;;2.90;2.50;;;;;;;20.49;63.23;96361.34;1631298;86;21017;-79
2021/07/07 01:54:52;;;;;;;3.33;2.52;;;;;;;20.48;63.26;96358.95;1645717;85;20928;-79
2021/07/07 01:57:18;;;;;;;3.83;2.55;;;;;;;20.46;63.16;96360.52;1667513;85;21339;-79
2021/07/07 01:59:44;;;;;;;3.17;2.80;;;;;;;20.46;62.99;96357.08;1668951;85;21070;-79
2021/07/07 02:02:09;;;;;;;2.40;2.20;;;;;;;20.51;62.57;96364.56;1639956;87;20987;-78
2021/07/07 02:04:35;;;;;;;3.55;2.60;;;;;;;20.54;62.63;96356.67;1647747;86;21016;-79
2021/07/07 02:07:02;;;;;;;3.27;2.20;;;;;;;20.54;62.50;96358.78;1647998;86;20963;-79
2021/07/07 02:09:28;;;;;;;2.62;2.35;;;;;;;20.54;62.21;96357.99;1617850;87;20980;-79
2021/07/07 02:11:53;;;;;;;3.85;2.45;;;;;;;20.54;62.31;96360.11;1648572;86;21324;-80
2021/07/07 02:14:19;;;;;;;3.12;2.80;;;;;;;20.52;62.52;96360.08;1646964;84;21335;-79
2021/07/07 02:16:45;;;;;;;2.40;2.20;;;;;;;20.50;62.50;96362.14;1664097;86;20985;-79
2021/07/07 02:19:13;;;;;;;3.33;2.30;;;;;;;20.48;62.55;96361.59;1646130;86;20930;-79
2021/07/07 02:21:39;;;;;;;3.02;2.55;;;;;;;20.43;62.63;96367.61;1659302;86;21470;-79
2021/07/07 02:24:04;;;;;;;3.55;2.60;;;;;;;20.43;62.60;96366.81;1638028;87;21002;-80
2021/07/07 02:26:30;;;;;;;2.70;2.47;;;;;;;20.39;62.77;96367.80;1629866;86;20971;-78
2021/07/07 02:28:56;;;;;;;3.62;2.27;;;;;;;20.36;62.57;96366.97;1630694;86;21302;-79
2021/07/07 02:31:22;;;;;;;4.03;2.83;;;;;;;20.39;62.70;96366.47;1662581;86;20962;-79
2021/07/07 02:33:48;;;;;;;2.87;2.67;;;;;;;20.41;62.70;96365.73;1644609;86;21037;-79
2021/07/07 02:36:13;;;;;;;3.00;2.45;;;;;;;20.43;62.61;96368.13;1647217;86;20973;-79
2021/07/07 02:38:39;;;;;;;2.50;2.30;;;;;;;20.41;62.67;96367.55;1640838;86;21327;-80
2021/07/07 02:41:05;;;;;;;2.20;2.00;;;;;;;20.39;62.52;96377.83;1628182;87;21041;-79
2021/07/07 02:43:30;;;;;;;2.42;2.22;;;;;;;20.36;62.28;96380.16;1640136;86;21002;-79
2021/07/07 02:45:56;;;;;;;2.90;2.60;;;;;;;20.36;62.13;96381.48;1659465;86;20958;-79
2021/07/07 02:48:22;;;;;;;2.58;2.25;;;;;;;20.35;62.19;96385.95;1637513;86;20993;-79
2021/07/07 02:50:48;;;;;;;2.80;2.60;;;;;;;20.35;62.19;96385.95;1641003;86;20978;-79
2021/07/07 02:53:16;;;;;;;3.65;2.35;;;;;;;20.34;62.53;96385.69;1639268;86;20979;-79
2021/07/07 02:55:42;;;;;;;2.30;2.00;;;;;;;20.33;62.13;96388.02;1644236;86;20978;-79
2021/07/07 02:58:07;;;;;;;2.30;2.10;;;;;;;20.34;61.83;96395.44;1647289;86;20955;-79
2021/07/07 03:00:39;;;;;;;2.40;2.20;;;;;;;20.35;62.14;96392.56;1655049;86;21255;-79
2021/07/07 03:03:21;;;;;;;2.98;2.25;;;;;;;20.35;61.87;96399.67;1648057;86;20950;-79
2021/07/07 03:05:54;;;;;;;2.58;2.37;;;;;;;20.35;62.22;96395.20;1645267;86;21002;-79
2021/07/07 03:08:21;;;;;;;3.52;2.33;;;;;;;20.35;62.04;96397.04;1641168;86;20997;-79
2021/07/07 03:10:48;;;;;;;2.87;2.10;;;;;;;20.37;62.05;96402.34;1637501;86;20951;-79
2021/07/07 03:13:14;;;;;;;2.27;2.08;;;;;;;20.41;61.63;96395.25;1641274;86;20983;-79
2021/07/07 03:15:41;;;;;;;2.95;2.37;;;;;;;20.43;61.58;96397.95;1639267;86;21039;-79
2021/07/07 03:18:08;;;;;;;2.92;2.20;;;;;;;20.46;61.35;96397.47;1632568;86;21286;-79
2021/07/07 03:20:35;;;;;;;2.27;2.08;;;;;;;20.50;62.06;96400.41;1636300;86;21006;-79
2021/07/07 03:23:02;;;;;;;3.08;2.15;;;;;;;20.50;61.83;96405.69;1635396;86;21265;-79
2021/07/07 03:25:28;;;;;;;2.80;2.60;;;;;;;20.53;61.78;96404.70;1649313;86;20943;-79
2021/07/07 03:27:54;;;;;;;3.83;2.30;;;;;;;20.55;61.77;96405.78;1659589;86;21754;-79
2021/07/07 03:30:21;;;;;;;2.27;2.08;;;;;;;20.57;61.25;96405.80;1645898;86;20931;-78
2021/07/07 03:32:46;;;;;;;3.42;2.47;;;;;;;20.61;61.95;96407.43;1604509;87;20985;-79
2021/07/07 03:35:12;;;;;;;2.92;2.62;;;;;;;20.62;61.02;96405.06;1633493;86;21292;-79
2021/07/07 03:37:38;;;;;;;3.37;2.60;;;;;;;20.66;61.52;96403.03;1635445;86;21012;-79
2021/07/07 03:40:05;;;;;;;4.37;2.95;;;;;;;20.71;61.31;96402.81;1636352;86;21244;-79
2021/07/07 03:42:31;;;;;;;3.27;2.47;;;;;;;20.73;61.27;96402.84;1636493;86;21245;-79
2021/07/07 03:44:58;;;;;;;3.37;2.25;;;;;;;20.74;61.71;96399.68;1645036;86;20931;-79
2021/07/07 03:47:25;;;;;;;2.70;2.50;;;;;;;20.74;61.59;96404.96;1639461;86;21249;-79
2021/07/07 03:49:51;;;;;;;3.30;2.08;;;;;;;20.74;62.08;96404.96;1626844;86;20975;-78
2021/07/07 03:52:17;;;;;;;3.35;2.40;;;;;;;20.74;62.09;96407.08;1635374;86;20963;-79
2021/07/07 03:54:43;;;;;;;2.60;2.40;;;;;;;20.78;61.83;96409.50;1619113;86;20989;-79
2021/07/07 03:57:08;;;;;;;2.65;2.30;;;;;;;20.83;61.56;96408.27;1612977;86;20970;-80
2021/07/07 03:59:34;;;;;;;2.60;2.40;;;;;;;20.88;61.98;96413.59;1632913;86;21328;-79
2021/07/07 04:02:00;;;;;;;2.52;2.33;;;;;;;20.89;62.33;96419.16;1619311;86;20984;-79
2021/07/07 04:04:26;;;;;;;2.37;2.12;;;;;;;20.87;62.16;96418.60;1636519;86;21000;-78
2021/07/07 04:06:57;;;;;;;2.30;1.82;;;;;;;20.87;62.30;96420.45;1640866;86;20994;-79
2021/07/07 04:09:20;;;;;;;2.98;2.67;;;;;;;20.88;61.98;96422.84;1641009;86;20944;-80
2021/07/07 04:11:46;;;;;;;2.92;2.17;;;;;;;20.89;61.85;96421.80;1629579;86;21002;-79
2021/07/07 04:14:12;;;;;;;2.52;2.30;;;;;;;20.92;62.17;96420.50;1651483;86;21015;-80
2021/07/07 04:16:38;;;;;;;2.47;2.27;;;;;;;20.95;61.98;96423.44;1633723;86;21057;-79
2021/07/07 04:19:04;;;;;;;2.10;1.90;;;;;;;20.98;61.98;96427.42;1634425;87;21288;-79
2021/07/07 04:21:29;;;;;;;2.85;2.55;;;;;;;21.00;62.03;96428.00;1611905;87;20942;-79
2021/07/07 04:23:56;;;;;;;2.47;2.10;;;;;;;21.02;62.56;96435.68;1614691;87;21035;-79
2021/07/07 04:26:22;;;;;;;2.42;2.22;;;;;;;21.02;62.47;96435.68;1614305;87;21314;-79
2021/07/07 04:28:48;;;;;;;2.98;1.80;;;;;;;21.04;62.08;96438.88;1615164;87;21281;-79
2021/07/07 04:31:13;;;;;;;2.35;2.12;;;;;;;21.07;62.40;96438.38;1616765;87;21029;-79
2021/07/07 04:33:39;;;;;;;2.95;2.00;;;;;;;21.09;61.90;96442.36;1614101;87;21305;-79
2021/07/07 04:36:05;;;;;;;2.92;2.02;;;;;;;21.17;62.10;96438.50;1625168;87;21022;-79
2021/07/07 04:38:31;;;;;;;2.12;1.92;;;;;;;21.23;61.81;96443.59;1623920;87;20978;-79
2021/07/07 04:40:56;;;;;;;2.27;2.05;;;;;;;21.30;61.81;96440.77;1615203;87;20970;-79
2021/07/07 04:43:22;;;;;;;2.25;2.05;;;;;;;21.34;61.33;96437.93;1613580;87;20994;-79
2021/07/07 04:45:48;;;;;;;2.20;1.92;;;;;;;21.41;61.49;96435.08;1614391;87;21081;-79
2021/07/07 04:48:14;;;;;;;3.45;2.05;;;;;;;21.46;61.83;96440.41;1613405;87;21066;-79
2021/07/07 04:50:40;;;;;;;2.10;1.87;;;;;;;21.50;62.05;96441.01;1607536;87;21304;-79
2021/07/07 04:53:05;;;;;;;2.20;1.85;;;;;;;21.52;61.91;96444.20;1607272;87;20990;-79
2021/07/07 04:55:32;;;;;;;2.50;1.80;;;;;;;21.54;62.42;96443.94;1611534;87;20982;-79
2021/07/07 04:57:58;;;;;;;1.98;1.77;;;;;;;21.55;60.69;96445.02;1614792;87;21260;-79
2021/07/07 05:00:25;;;;;;;2.10;1.90;;;;;;;21.61;61.54;96439.77;1596928;87;20995;-79
2021/07/07 05:02:51;;;;;;;2.87;1.80;;;;;;;21.62;62.51;96441.36;1614031;87;21351;-79
2021/07/07 05:05:18;;;;;;;2.30;1.87;;;;;;;21.64;61.76;96439.27;1614024;87;21261;-79
2021/07/07 05:07:45;;;;;;;2.17;1.80;;;;;;;21.67;62.17;96431.65;1633620;87;20996;-79
2021/07/07 05:10:12;;;;;;;2.10;1.80;;;;;;;21.71;62.30;96434.59;1615048;87;20994;-79
2021/07/07 05:12:37;;;;;;;2.25;1.70;;;;;;;21.72;62.32;96446.76;1613397;87;21040;-79
2021/07/07 05:15:05;;;;;;;2.12;1.80;;;;;;;21.73;62.25;96439.09;1612438;87;20952;-79
2021/07/07 05:17:31;;;;;;;1.82;1.70;;;;;;;21.73;62.65;96438.57;1635222;86;20944;-79
2021/07/07 05:19:58;;;;;;;1.62;1.40;;;;;;;21.82;63.19;96437.61;1638376;86;21579;-79
2021/07/07 05:22:26;;;;;;;2.62;1.72;;;;;;;21.82;63.19;96437.61;1652339;86;21405;-79
2021/07/07 05:24:53;;;;;;;1.92;1.70;;;;;;;21.86;63.02;96439.48;1637073;86;21029;-79
2021/07/07 05:27:19;;;;;;;2.35;1.70;;;;;;;21.88;62.69;96444.52;1651892;86;21350;-79
2021/07/07 05:29:44;;;;;;;1.75;1.57;;;;;;;21.94;62.72;96442.19;1635988;86;20952;-79
2021/07/07 05:32:10;;;;;;;2.72;1.92;;;;;;;21.98;63.39;96443.83;1635948;86;20951;-79
2021/07/07 05:34:38;;;;;;;2.20;1.50;;;;;;;22.00;63.70;96441.20;1633258;87;21255;-79
2021/07/07 05:37:03;;;;;;;2.33;1.90;;;;;;;22.01;63.59;96440.67;1637046;88;20944;-80
2021/07/07 05:39:29;;;;;;;1.67;1.45;;;;;;;22.03;63.33;96444.66;1624480;86;21272;-79
2021/07/07 05:41:56;;;;;;;2.00;1.70;;;;;;;22.03;63.43;96443.33;1630723;86;20967;-79
2021/07/07 05:44:22;;;;;;;1.75;1.62;;;;;;;22.06;63.39;96442.05;1636565;86;20935;-79
2021/07/07 05:46:48;;;;;;;2.55;1.55;;;;;;;22.07;63.92;96443.13;1636237;86;21003;-79
2021/07/07 05:49:14;;;;;;;4.10;1.70;;;;;;;22.10;64.09;96447.91;1615978;87;21015;-79
2021/07/07 05:51:40;;;;;;;2.60;1.60;;;;;;;22.16;64.21;96444.27;1636358;86;21111;-79
2021/07/07 05:54:05;;;;;;;1.87;1.60;;;;;;;22.20;63.65;96443.22;1635552;86;21081;-79
2021/07/07 05:56:31;;;;;;;2.67;1.67;;;;;;;22.26;63.18;96451.46;1635517;86;21015;-79
2021/07/07 05:58:57;;;;;;;1.80;1.52;;;;;;;22.33;63.50;96455.23;1621419;86;21035;-79
2021/07/07 06:01:23;;;;;;;2.60;1.90;;;;;;;22.37;64.05;96458.44;1636677;86;21413;-79
2021/07/07 06:03:49;;;;;;;2.08;1.87;;;;;;;22.43;64.18;96449.98;1635920;86;20975;-79
2021/07/07 06:06:16;;;;;;;2.95;1.80;;;;;;;22.45;64.11;96457.14;1635111;86;21101;-80
2021/07/07 06:08:42;;;;;;;2.35;1.98;;;;;;;22.49;63.90;96462.23;1648820;86;21280;-80
2021/07/07 06:11:07;;;;;;;2.90;2.08;;;;;;;22.52;64.25;96461.71;1647536;86;20919;-80
2021/07/07 06:13:34;;;;;;;2.02;1.82;;;;;;;22.54;64.68;96461.45;1594753;87;20947;-81
2021/07/07 06:16:00;;;;;;;1.82;1.65;;;;;;;22.59;64.18;96463.59;1644864;85;21418;-80
2021/07/07 06:18:27;;;;;;;2.70;1.70;;;;;;;22.67;64.27;96472.41;1637824;86;21110;-80
2021/07/07 06:20:53;;;;;;;2.00;1.60;;;;;;;22.73;64.05;96466.06;1653677;86;21292;-81
2021/07/07 06:23:18;;;;;;;2.85;1.80;;;;;;;22.80;63.21;96473.80;1637900;86;21026;-82
2021/07/07 06:25:44;;;;;;;1.80;1.60;;;;;;;22.85;63.24;96475.70;1633103;86;21031;-80
2021/07/07 06:28:10;;;;;;;2.00;1.80;;;;;;;22.88;63.61;96475.19;1614244;87;21007;-81
2021/07/07 06:30:36;;;;;;;2.45;2.00;;;;;;;22.94;62.26;96479.45;1650088;86;21235;-80
2021/07/07 06:33:03;;;;;;;2.98;2.08;;;;;;;23.04;61.33;96482.16;1645224;86;21016;-82
2021/07/07 06:35:35;;;;;;;2.85;1.87;;;;;;;23.16;61.82;96477.98;1636329;86;21075;-82
2021/07/07 06:37:59;;;;;;;2.95;2.30;;;;;;;23.23;61.89;96481.17;1658436;86;20955;-80
2021/07/07 06:40:25;;;;;;;2.60;2.40;;;;;;;23.28;61.68;96482.01;1636085;87;21038;-81
2021/07/07 06:42:51;;;;;;;2.10;1.90;;;;;;;23.32;61.85;96483.08;1625815;86;21045;-80
2021/07/07 06:45:17;;;;;;;2.98;2.30;;;;;;;23.36;62.11;96488.65;1645425;86;20923;-79
2021/07/07 06:47:43;;;;;;;2.50;2.22;;;;;;;23.39;62.26;96492.10;1647841;86;21017;-80
2021/07/07 06:50:12;;;;;;;2.42;2.22;;;;;;;23.48;61.60;96491.08;1637359;87;20988;-80
2021/07/07 06:52:37;;;;;;;2.98;2.70;;;;;;;23.56;60.70;96487.91;1636142;86;20952;-81
2021/07/07 06:55:05;;;;;;;2.80;2.60;;;;;;;23.67;59.56;96488.24;1622216;86;21319;-80
2021/07/07 06:57:34;;;;;;;2.47;2.20;;;;;;;23.79;58.96;96490.13;1630798;86;20955;-81
2021/07/07 06:59:59;;;;;;;2.70;2.50;;;;;;;23.90;58.02;96490.39;1635921;86;21025;-81
2021/07/07 07:02:24;;;;;;;2.65;2.45;;;;;;;24.04;57.24;96491.21;1657456;86;21013;-80
2021/07/07 07:04:50;;;;;;;3.47;2.50;;;;;;;24.19;57.11;96489.89;1614054;86;20938;-81
2021/07/07 07:07:16;;;;;;;2.80;2.60;;;;;;;24.32;56.81;96488.07;1646904;86;21291;-81
2021/07/07 07:09:41;;;;;;;3.17;2.87;;;;;;;24.45;56.59;96495.50;1636675;86;20996;-83
2021/07/07 07:12:07;;;;;;;4.30;2.58;;;;;;;24.50;55.74;96482.74;1646237;87;20956;-81
2021/07/07 07:14:33;;;;;;;3.10;2.60;;;;;;;24.67;56.15;96490.42;1613475;86;20955;-80
2021/07/07 07:16:59;;;;;;;3.05;2.80;;;;;;;24.77;55.03;96491.74;1656204;86;20981;-81
2021/07/07 07:19:25;;;;;;;3.75;2.95;;;;;;;24.88;55.40;96491.17;1624197;86;20991;-80
2021/07/07 07:21:50;;;;;;;3.33;3.02;;;;;;;24.93;56.00;96484.53;1631279;86;20928;-81
2021/07/07 07:24:16;;;;;;;2.80;2.60;;;;;;;24.97;54.79;96490.36;1625766;86;21000;-82
2021/07/07 07:26:42;;;;;;;3.83;2.80;;;;;;;25.08;54.34;96489.83;1643548;86;21051;-82
2021/07/07 07:29:08;;;;;;;2.85;2.60;;;;;;;25.18;56.49;96495.09;1617759;88;20995;-81
2021/07/07 07:31:34;;;;;;;3.98;2.95;;;;;;;25.23;55.78;96495.63;1630741;87;20959;-80
2021/07/07 07:34:00;;;;;;;3.02;2.72;;;;;;;25.31;55.50;96493.72;1628361;87;21325;-81
2021/07/07 07:36:26;;;;;;;3.08;2.50;;;;;;;25.38;54.73;96496.88;1627836;87;21047;-81
2021/07/07 07:39:04;;;;;;;2.70;2.50;;;;;;;25.41;55.18;96498.47;1623278;87;21013;-80
2021/07/07 07:41:34;;;;;;;3.20;2.70;;;;;;;25.46;54.74;96502.97;1623595;88;20972;-80
2021/07/07 07:44:00;;;;;;;3.87;2.40;;;;;;;25.52;54.35;96495.21;1605103;88;21132;-80
2021/07/07 07:46:29;;;;;;;3.77;2.35;;;;;;;25.58;54.88;96501.32;1604336;88;21030;-80
2021/07/07 07:48:56;;;;;;;2.75;2.35;;;;;;;25.59;53.32;96493.06;1609706;88;21001;-81
2021/07/07 07:51:23;;;;;;;4.65;2.10;;;;;;;25.71;52.97;96500.22;1626336;87;20963;-81
2021/07/07 07:53:49;;;;;;;3.77;2.50;;;;;;;25.80;52.83;96501.75;1608702;88;20975;-79
2021/07/07 07:56:15;;;;;;;3.10;2.50;;;;;;;25.89;53.18;96496.12;1611472;88;20989;-80
2021/07/07 07:58:40;;;;;;;2.60;2.37;;;;;;;25.95;51.50;96501.66;1608104;88;21401;-79
2021/07/07 08:01:06;;;;;;;2.50;2.30;;;;;;;26.10;51.00;96499.96;1610631;88;20942;-80
2021/07/07 08:03:32;;;;;;;3.40;2.40;;;;;;;26.19;52.39;96502.27;1611562;88;20970;-79
2021/07/07 08:05:57;;;;;;;5.95;2.92;;;;;;;26.22;53.03;96503.08;1638965;87;21005;-79
2021/07/07 08:08:23;;;;;;;3.12;2.65;;;;;;;26.25;52.47;96504.64;1621302;86;21375;-79
2021/07/07 08:10:49;;;;;;;2.55;2.35;;;;;;;26.32;52.68;96505.64;1614064;88;21031;-80
2021/07/07 08:13:15;;;;;;;3.15;2.50;;;;;;;26.42;51.77;96511.46;1650293;86;20948;-79
2021/07/07 08:15:41;;;;;;;2.95;2.50;;;;;;;26.52;51.16;96505.52;1631767;86;21323;-79
2021/07/07 08:18:07;;;;;;;2.95;2.55;;;;;;;26.65;52.19;96505.38;1624645;87;21033;-80
2021/07/07 08:20:33;;;;;;;3.40;2.70;;;;;;;26.72;53.53;96505.86;1590354;88;21338;-80
2021/07/07 08:22:58;;;;;;;3.05;2.52;;;;;;;26.74;52.93;96513.03;1631299;87;21019;-80
2021/07/07 08:25:24;;;;;;;3.17;2.58;;;;;;;26.88;51.95;96511.84;1623519;87;20977;-80
2021/07/07 08:27:50;;;;;;;2.70;2.50;;;;;;;27.02;52.07;96510.13;1616452;87;20957;-82
2021/07/07 08:30:16;;;;;;;2.90;2.52;;;;;;;27.13;52.58;96512.91;1639438;87;21256;-79
2021/07/07 08:32:42;;;;;;;3.83;2.62;;;;;;;27.26;52.54;96509.31;1617560;87;21041;-80
2021/07/07 08:35:09;;;;;;;2.92;2.40;;;;;;;27.41;49.74;96513.13;1604770;87;21007;-80
2021/07/07 08:37:35;;;;;;;3.37;2.80;;;;;;;27.61;49.51;96512.87;1625232;87;20963;-80
2021/07/07 08:40:01;;;;;;;2.70;2.50;;;;;;;27.80;48.37;96514.24;1614320;87;20979;-80
2021/07/07 08:42:27;;;;;;;3.25;2.30;;;;;;;27.91;50.05;96514.91;1612885;87;21066;-80
2021/07/07 08:44:52;;;;;;;3.25;2.80;;;;;;;28.06;48.71;96520.81;1612708;87;21000;-79
2021/07/07 08:47:18;;;;;;;2.60;2.40;;;;;;;28.21;49.75;96517.13;1632991;87;20979;-80
2021/07/07 08:49:44;;;;;;;3.30;2.50;;;;;;;28.34;48.92;96516.96;1614624;87;21039;-80
2021/07/07 08:52:09;;;;;;;2.80;2.40;;;;;;;28.50;48.50;96516.17;1615631;87;21329;-80
2021/07/07 08:54:35;;;;;;;3.72;2.22;;;;;;;28.66;46.90;96518.84;1614903;87;20979;-80
2021/07/07 08:57:07;;;;;;;2.50;2.00;;;;;;;28.80;46.91;96519.66;1610344;87;21008;-80
2021/07/07 08:59:31;;;;;;;2.75;2.10;;;;;;;28.88;45.21;96515.53;1607418;88;21040;-80
2021/07/07 09:02:11;;;;;;;2.42;2.20;;;;;;;29.07;45.22;96516.23;1614608;87;21352;-80
2021/07/07 09:04:45;;;;;;;3.08;2.40;;;;;;;29.26;44.67;96514.80;1602393;87;21027;-80
2021/07/07 09:07:17;;;;;;;3.10;2.47;;;;;;;29.41;42.56;96510.48;1627221;87;21063;-79
2021/07/07 09:09:51;;;;;;;3.17;1.90;;;;;;;29.52;45.89;96515.91;1593518;87;21425;-80
2021/07/07 09:12:26;;;;;;;2.58;2.22;;;;;;;29.67;46.77;96520.15;1614973;87;21009;-80
2021/07/07 09:15:05;;;;;;;2.77;2.20;;;;;;;29.74;44.57;96524.53;1607987;87;20970;-80
2021/07/07 09:17:44;;;;;;;4.40;2.12;;;;;;;29.88;44.34;96523.17;1600139;86;20992;-80
2021/07/07 09:20:21;;;;;;;3.22;2.15;;;;;;;29.96;43.17;96525.70;1675459;85;20990;-80
2021/07/07 09:22:48;;;;;;;2.33;2.12;;;;;;;30.01;46.34;96528.25;1642698;86;21006;-81
2021/07/07 09:25:14;;;;;;;2.37;2.17;;;;;;;29.99;45.01;96531.78;1645672;86;21331;-80
2021/07/07 09:27:40;;;;;;;2.92;2.10;;;;;;;29.90;45.53;96527.67;1649160;86;20987;-80
2021/07/07 09:30:09;;;;;;;3.67;2.10;;;;;;;29.97;43.20;96529.95;1644204;86;21084;-80
2021/07/07 09:32:49;;;;;;;3.05;2.30;;;;;;;30.04;42.86;96531.66;1664571;86;20975;-80
2021/07/07 09:35:20;;;;;;;2.90;2.30;;;;;;;30.18;43.16;96533.78;1629182;86;21452;-80
2021/07/07 09:37:54;;;;;;;2.45;2.25;;;;;;;30.30;41.95;96531.36;1645914;86;21339;-80
2021/07/07 09:40:19;;;;;;;4.72;2.30;;;;;;;30.40;43.11;96535.67;1639995;86;21327;-80
2021/07/07 09:42:46;;;;;;;3.08;2.40;;;;;;;30.54;42.44;96535.61;1664269;86;20959;-80
2021/07/07 09:45:19;;;;;;;3.17;2.55;;;;;;;30.65;41.90;96543.13;1645772;86;21013;-80
2021/07/07 09:47:45;;;;;;;3.25;2.50;;;;;;;30.67;41.09;96542.27;1662781;86;20977;-80
2021/07/07 09:50:12;;;;;;;4.45;2.50;;;;;;;30.69;42.56;96543.30;1636768;85;21018;-80
2021/07/07 09:52:38;;;;;;;2.35;2.15;;;;;;;30.36;41.80;96548.10;1646892;86;21057;-80
2021/07/07 09:55:08;;;;;;;2.45;2.25;;;;;;;30.00;44.13;96545.42;1658064;86;21141;-80
2021/07/07 09:57:33;;;;;;;3.08;2.52;;;;;;;29.79;45.33;96549.10;1659114;86;20954;-80
2021/07/07 09:59:58;;;;;;;3.25;2.30;;;;;;;29.71;42.86;96544.44;1658394;86;21045;-80
2021/07/07 10:02:24;;;;;;;4.62;2.95;;;;;;;29.83;45.48;96545.52;1665058;86;20969;-80
2021/07/07 10:04:50;;;;;;;2.70;2.50;;;;;;;29.77;46.33;96545.36;1639939;86;20978;-80
2021/07/07 10:07:16;;;;;;;3.42;2.60;;;;;;;29.66;46.66;96543.22;1634176;87;21051;-80
2021/07/07 10:09:47;;;;;;;3.77;2.60;;;;;;;29.63;46.27;96540.59;1646148;86;21083;-80
2021/07/07 10:12:13;;;;;;;2.60;2.40;;;;;;;29.69;46.53;96546.63;1646224;86;20918;-80
2021/07/07 10:14:39;;;;;;;2.98;2.37;;;;;;;29.82;47.55;96538.57;1646542;86;21830;-80
2021/07/07 10:17:06;;;;;;;4.05;2.83;;;;;;;29.92;45.52;96540.77;1653573;85;21363;-82
2021/07/07 10:19:31;;;;;;;2.50;2.30;;;;;;;30.10;44.57;96539.84;1611910;87;21006;-82
2021/07/07 10:21:57;;;;;;;3.75;2.30;;;;;;;30.31;43.17;96542.32;1654232;86;21002;-82
2021/07/07 10:24:31;;;;;;;3.67;2.55;;;;;;;30.44;43.69;96544.16;1653000;86;21031;-82
2021/07/07 10:26:59;;;;;;;2.92;2.15;;;;;;;30.56;42.25;96543.58;1655590;86;21002;-82
2021/07/07 10:29:25;;;;;;;3.58;2.83;;;;;;;30.66;41.47;96544.72;1642949;87;21055;-82
2021/07/07 10:31:58;;;;;;;2.37;2.17;;;;;;;30.75;40.96;96532.16;1657192;86;20934;-82
2021/07/07 10:34:26;;;;;;;2.67;2.37;;;;;;;30.82;40.57;96537.62;1646694;86;21229;-82
2021/07/07 10:36:53;;;;;;;3.62;2.35;;;;;;;30.88;40.11;96535.04;1619819;86;21053;-82
2021/07/07 10:39:20;;;;;;;3.08;2.25;;;;;;;30.91;40.52;96533.87;1616158;87;21030;-81
2021/07/07 10:41:51;;;;;;;2.25;1.82;;;;;;;30.94;42.54;96543.22;1641328;87;21052;-82
2021/07/07 10:44:29;;;;;;;2.40;2.20;;;;;;;30.95;41.91;96538.88;1626579;86;21084;-82
2021/07/07 10:47:10;;;;;;;2.37;1.80;;;;;;;31.04;41.52;96538.91;1637988;86;20920;-82
2021/07/07 10:49:39;;;;;;;2.22;1.92;;;;;;;31.08;39.63;96542.58;1637686;87;21037;-82
2021/07/07 10:52:07;;;;;;;2.50;2.30;;;;;;;31.10;39.59;96530.19;1641345;86;21030;-82
2021/07/07 10:54:38;;;;;;;2.58;2.20;;;;;;;30.74;42.41;96531.89;1638566;86;21035;-82
2021/07/07 10:57:06;;;;;;;3.55;2.22;;;;;;;30.39;43.21;96539.45;1613711;86;20985;-82
2021/07/07 10:59:40;;;;;;;2.85;2.50;;;;;;;30.35;43.80;96544.62;1633843;86;21015;-82
2021/07/07 11:02:19;;;;;;;2.55;2.35;;;;;;;30.45;44.01;96539.59;1639730;86;20978;-81
2021/07/07 11:04:50;;;;;;;2.30;2.08;;;;;;;30.45;45.46;96539.59;1636831;87;21277;-82
2021/07/07 11:07:35;;;;;;;2.52;2.25;;;;;;;30.45;42.77;96536.91;1630680;86;21369;-82
2021/07/07 11:10:17;;;;;;;2.60;2.22;;;;;;;30.20;43.30;96531.58;1640176;87;20959;-82
2021/07/07 11:12:45;;;;;;;2.92;2.25;;;;;;;29.99;45.39;96537.14;1635417;86;20979;-82
2021/07/07 11:15:21;;;;;;;3.02;2.40;;;;;;;30.16;46.11;96533.30;1640746;87;20983;-82
2021/07/07 11:17:52;;;;;;;3.35;2.60;;;;;;;30.36;44.95;96534.70;1662111;85;21315;-81
2021/07/07 11:20:25;;;;;;;3.70;2.37;;;;;;;30.13;46.09;96533.91;1627091;87;20957;-82
2021/07/07 11:23:09;;;;;;;3.83;2.55;;;;;;;29.82;47.23;96533.77;1626360;86;21302;-82
2021/07/07 11:25:37;;;;;;;2.77;2.58;;;;;;;29.70;48.33;96531.59;1637164;87;20975;-82
2021/07/07 11:28:06;;;;;;;2.62;2.40;;;;;;;29.74;48.68;96533.12;1660283;86;21054;-82
2021/07/07 11:30:31;;;;;;;3.05;2.65;;;;;;;30.00;46.09;96538.17;1636069;86;21023;-82
2021/07/07 11:33:02;;;;;;;3.90;2.45;;;;;;;30.32;47.46;96535.07;1641120;86;21027;-82